createdAt,value
2019-05-15T00:01:08.750Z,29.47
2019-05-15T00:06:13.662Z,30.57
2019-05-15T00:11:19.559Z,28.60
2019-05-15T00:16:24.794Z,26.87
2019-05-15T00:21:29.762Z,28.50
2019-05-15T00:26:34.610Z,28.23
2019-05-15T00:31:40.935Z,27.37
2019-05-15T00:36:45.719Z,26.73
2019-05-15T00:41:54.634Z,28.57
2019-05-15T00:46:58.269Z,28.30
2019-05-15T00:52:03.566Z,27.60
2019-05-15T00:57:08.642Z,27.87
2019-05-15T01:02:13.472Z,26.73
2019-05-15T01:07:18.811Z,26.63
2019-05-15T01:12:23.869Z,26.90
2019-05-15T01:17:29.129Z,25.93
2019-05-15T01:22:34.377Z,24.63
2019-05-15T01:27:39.364Z,27.63
2019-05-15T01:32:44.183Z,26.03
2019-05-15T01:37:48.922Z,25.50
2019-05-15T01:42:53.730Z,23.47
2019-05-15T01:47:59.731Z,24.50
2019-05-15T01:53:04.593Z,24.93
2019-05-15T01:58:09.554Z,24.80
2019-05-15T02:03:14.387Z,23.40
2019-05-15T02:08:19.372Z,22.43
2019-05-15T02:13:24.612Z,22.80
2019-05-15T02:18:29.659Z,22.23
2019-05-15T02:23:34.685Z,21.40
2019-05-15T02:28:39.432Z,23.10
2019-05-15T02:33:44.246Z,22.17
2019-05-15T02:38:50.343Z,20.53
2019-05-15T02:43:55.296Z,19.73
2019-05-15T02:49:00.044Z,19.70
2019-05-15T02:54:05.094Z,19.53
2019-05-15T02:59:09.936Z,19.00
2019-05-15T03:04:14.767Z,19.80
2019-05-15T03:09:19.644Z,18.60
2019-05-15T03:15:00.977Z,18.57
2019-05-15T03:20:10.309Z,17.40
2019-05-15T03:25:14.560Z,17.43
2019-05-15T03:30:21.843Z,17.43
2019-05-15T03:35:25.957Z,16.37
2019-05-15T03:40:30.920Z,17.63
2019-05-15T03:45:35.742Z,16.67
2019-05-15T03:50:40.806Z,17.83
2019-05-15T03:55:45.713Z,16.47
2019-05-15T04:00:50.626Z,16.20
2019-05-15T04:05:55.703Z,16.80
2019-05-15T04:11:00.600Z,15.50
2019-05-15T04:16:05.973Z,15.50
2019-05-15T04:21:10.897Z,16.20
2019-05-15T04:26:15.954Z,15.40
2019-05-15T04:31:21.151Z,15.73
2019-05-15T04:36:29.359Z,15.13
2019-05-15T04:41:32.773Z,14.63
2019-05-15T04:46:39.209Z,14.97
2019-05-15T04:51:44.493Z,14.13
2019-05-15T04:56:49.676Z,14.00
2019-05-15T05:02:13.066Z,14.20
2019-05-15T05:07:01.290Z,16.03
2019-05-15T05:12:08.569Z,14.70
2019-05-15T05:17:12.904Z,14.67
2019-05-15T05:22:18.726Z,14.10
2019-05-15T05:27:24.318Z,14.50
2019-05-15T05:32:48.871Z,15.00
2019-05-15T05:37:54.095Z,14.03
2019-05-15T05:42:59.608Z,13.63
2019-05-15T05:48:05.070Z,14.20
2019-05-15T05:53:48.025Z,14.57
2019-05-15T05:58:53.803Z,15.73
2019-05-15T06:04:00.733Z,15.97
2019-05-15T06:09:09.044Z,17.40
2019-05-15T06:14:14.234Z,16.70
2019-05-15T06:19:19.081Z,16.97
2019-05-15T06:24:24.184Z,17.03
2019-05-15T06:29:31.172Z,17.33
2019-05-15T06:34:42.907Z,17.80
2019-05-15T06:39:52.076Z,18.87
2019-05-15T06:45:01.886Z,19.40
2019-05-15T06:50:10.161Z,19.17
2019-05-15T06:55:18.708Z,19.33
2019-05-15T07:00:24.787Z,19.90
2019-05-15T07:05:32.015Z,21.97
2019-05-15T07:10:37.926Z,22.30
2019-05-15T07:15:45.467Z,24.60
2019-05-15T07:20:53.411Z,25.03
2019-05-15T07:25:59.635Z,26.97
2019-05-15T07:31:41.490Z,27.10
2019-05-15T07:36:48.989Z,28.77
2019-05-15T07:41:53.094Z,26.87
2019-05-15T07:46:58.992Z,27.67
2019-05-15T07:52:04.250Z,27.33
2019-05-15T07:57:09.080Z,33.17
2019-05-15T08:02:18.905Z,36.57
2019-05-15T08:07:22.468Z,41.87
2019-05-15T08:12:28.321Z,33.23
2019-05-15T08:17:33.603Z,32.43
2019-05-15T08:22:38.543Z,28.83
2019-05-15T08:27:43.917Z,32.43
2019-05-15T08:32:51.425Z,37.17
2019-05-15T08:37:55.407Z,34.30
2019-05-15T08:43:02.185Z,32.63
2019-05-15T08:48:09.376Z,38.27
2019-05-15T08:53:13.891Z,36.23
2019-05-15T08:58:20.691Z,37.83
2019-05-15T09:03:25.611Z,36.23
2019-05-15T09:08:30.674Z,39.17
2019-05-15T09:13:42.241Z,41.07
2019-05-15T09:18:42.531Z,45.00
2019-05-15T09:23:49.871Z,42.77
2019-05-15T09:28:54.255Z,45.43
2019-05-15T09:33:59.192Z,41.90
2019-05-15T09:39:06.015Z,43.87
2019-05-15T09:44:11.281Z,43.40
2019-05-15T09:49:18.207Z,44.43
2019-05-15T09:54:25.691Z,45.93
2019-05-15T09:59:30.249Z,47.37
2019-05-15T10:04:35.417Z,51.07
2019-05-15T10:09:40.413Z,49.80
2019-05-15T10:14:49.248Z,54.37
2019-05-15T10:19:53.365Z,43.57
2019-05-15T10:25:02.809Z,53.00
2019-05-15T10:30:12.994Z,52.73
2019-05-15T10:35:28.101Z,57.07
2019-05-15T10:40:29.767Z,49.93
2019-05-15T10:45:42.346Z,52.13
2019-05-15T10:50:47.558Z,53.37
2019-05-15T10:55:53.566Z,55.27
2019-05-15T11:01:02.410Z,53.73
2019-05-15T11:06:11.376Z,53.83
2019-05-15T11:11:18.354Z,53.77
2019-05-15T11:16:28.209Z,63.10
2019-05-15T11:21:35.492Z,60.27
2019-05-15T11:26:44.903Z,59.47
2019-05-15T11:31:51.107Z,58.23
2019-05-15T11:36:59.315Z,57.60
2019-05-15T11:42:08.912Z,66.40
2019-05-15T11:47:18.398Z,59.20
2019-05-15T11:52:23.127Z,59.03
2019-05-15T11:57:42.591Z,54.57
2019-05-15T12:02:42.418Z,63.70
2019-05-15T12:07:48.401Z,54.87
2019-05-15T12:13:31.998Z,56.00
2019-05-15T12:18:40.139Z,51.13
2019-05-15T12:23:48.318Z,54.00
2019-05-15T12:28:53.344Z,53.00
2019-05-15T12:34:01.701Z,51.87
2019-05-15T12:39:13.828Z,52.87
2019-05-15T12:59:39.568Z,50.83
2019-05-15T13:04:44.549Z,41.17
2019-05-15T13:09:49.657Z,38.77
2019-05-15T13:14:54.593Z,37.83
2019-05-15T13:19:59.805Z,35.33
2019-05-15T13:25:08.448Z,36.43
2019-05-15T13:30:13.172Z,34.27
2019-05-15T13:35:18.534Z,29.33
2019-05-15T13:40:36.995Z,29.90
2019-05-15T13:45:30.987Z,28.17
2019-05-15T13:50:39.757Z,22.60
2019-05-15T13:55:43.201Z,18.50
2019-05-15T14:00:49.435Z,18.30
2019-05-15T14:06:33.853Z,14.77
2019-05-15T14:11:39.169Z,15.83
2019-05-15T14:16:44.827Z,16.07
2019-05-15T14:21:49.841Z,15.77
2019-05-15T14:26:59.169Z,15.97
2019-05-15T14:32:03.468Z,16.97
2019-05-15T14:37:09.159Z,17.07
2019-05-15T14:42:14.309Z,17.47
2019-05-15T14:47:19.648Z,16.03
2019-05-15T14:52:27.898Z,17.03
2019-05-15T14:57:32.902Z,18.07
2019-05-15T15:02:38.947Z,17.23
2019-05-15T15:07:49.001Z,17.40
2019-05-15T15:12:54.485Z,16.03
2019-05-15T15:17:59.922Z,16.70
2019-05-15T15:23:07.986Z,16.23
2019-05-15T15:28:12.414Z,16.67
2019-05-15T15:33:18.338Z,15.23
2019-05-15T15:38:37.604Z,15.33
2019-05-15T15:43:31.829Z,16.50
2019-05-15T15:48:39.040Z,14.83
2019-05-15T15:53:47.960Z,15.30
2019-05-15T15:58:53.767Z,14.90
2019-05-15T16:03:58.979Z,15.27
2019-05-15T16:09:05.438Z,15.47
2019-05-15T16:14:10.646Z,15.43
2019-05-15T16:19:18.222Z,14.13
2019-05-15T16:24:23.052Z,15.93
2019-05-15T16:29:30.210Z,14.40
2019-05-15T16:34:35.773Z,14.67
2019-05-15T16:39:41.744Z,14.17
2019-05-15T16:44:49.026Z,15.17
2019-05-15T16:49:57.849Z,15.30
2019-05-15T16:55:02.384Z,14.07
2019-05-15T17:00:10.103Z,13.53
2019-05-15T17:05:18.348Z,13.80
2019-05-15T17:10:24.440Z,13.83
2019-05-15T17:15:31.599Z,13.97
2019-05-15T17:20:36.850Z,13.70
2019-05-15T17:25:42.120Z,13.77
2019-05-15T17:30:48.802Z,13.73
2019-05-15T17:35:54.686Z,13.83
2019-05-15T17:40:59.692Z,13.03
2019-05-15T17:46:05.817Z,13.80
2019-05-15T17:51:11.866Z,17.10
2019-05-15T17:56:17.232Z,16.30
2019-05-15T18:01:23.709Z,15.90
2019-05-15T18:06:29.193Z,17.13
2019-05-15T18:11:34.856Z,18.40
2019-05-15T18:16:40.556Z,18.30
2019-05-15T18:21:49.818Z,18.20
2019-05-15T18:26:55.087Z,20.43
2019-05-15T18:32:00.605Z,20.23
2019-05-15T18:37:05.738Z,19.30
2019-05-15T18:42:10.993Z,20.67
2019-05-15T18:47:18.607Z,21.60
2019-05-15T18:52:22.853Z,22.50
2019-05-15T18:57:28.587Z,22.03
2019-05-15T19:02:34.522Z,22.83
2019-05-15T19:07:41.003Z,23.77
2019-05-15T19:12:48.436Z,24.43
2019-05-15T19:17:54.169Z,25.70
2019-05-15T19:22:59.479Z,26.10
2019-05-15T19:28:05.024Z,26.20
2019-05-15T19:33:12.490Z,32.00
2019-05-15T19:38:18.586Z,31.33
2019-05-15T19:43:26.135Z,31.50
2019-05-15T19:48:32.212Z,33.87
2019-05-15T19:53:37.318Z,40.47
2019-05-15T19:58:42.827Z,40.97
2019-05-15T20:03:52.873Z,39.00
2019-05-15T20:08:55.330Z,41.40
2019-05-15T20:14:00.751Z,40.20
2019-05-15T20:19:08.610Z,40.80
2019-05-15T20:24:14.628Z,40.90
2019-05-15T20:29:19.927Z,40.90
2019-05-15T20:34:25.203Z,40.73
2019-05-15T20:39:31.138Z,43.67
2019-05-15T20:44:39.483Z,44.53
2019-05-15T20:49:48.503Z,43.70
2019-05-15T20:54:53.917Z,44.00
2019-05-15T21:00:00.362Z,43.93
2019-05-15T21:05:08.858Z,44.20
2019-05-15T21:10:13.927Z,43.43
2019-05-15T21:15:21.388Z,43.47
2019-05-15T21:20:25.920Z,46.37
2019-05-15T21:25:32.904Z,43.37
2019-05-15T21:30:40.982Z,44.03
2019-05-15T21:35:48.727Z,43.80
2019-05-15T21:40:54.332Z,42.37
2019-05-15T21:46:01.281Z,42.63
2019-05-15T21:51:11.240Z,43.70
2019-05-15T21:56:15.001Z,42.63
2019-05-15T22:01:21.790Z,42.07
2019-05-15T22:06:29.253Z,41.73
2019-05-15T22:11:34.848Z,42.77
2019-05-15T22:16:42.351Z,41.10
2019-05-15T22:21:48.960Z,41.17
2019-05-15T22:26:55.006Z,41.07
2019-05-15T22:32:00.258Z,41.77
2019-05-15T22:37:08.962Z,39.83
2019-05-15T22:42:15.056Z,40.50
2019-05-15T22:47:20.197Z,39.07
2019-05-15T22:52:28.528Z,40.83
2019-05-15T22:57:34.048Z,40.77
2019-05-15T23:02:38.976Z,45.30
2019-05-15T23:07:44.660Z,41.30
2019-05-15T23:12:49.943Z,38.93
2019-05-15T23:17:58.329Z,38.57
2019-05-15T23:23:03.991Z,39.87
2019-05-15T23:28:09.214Z,39.87
2019-05-15T23:33:14.262Z,37.50
2019-05-15T23:38:19.644Z,37.97
2019-05-15T23:43:24.901Z,37.60
2019-05-15T23:48:30.238Z,35.53
2019-05-15T23:53:35.285Z,36.47
2019-05-15T23:58:42.320Z,35.00
